John H Macmillan Jr — WDB9907 — position and weather

sailwx.info

Track history (hours):
 
Tides and Currents Weather Stations Pressure Air Temp Water Temp Dewpoint Dewpoint Depression Visibility Wind Speed Wind Dir Waves Ship Positions

John H Macmillan Jr

Owner: American River Transportation Company, St Louis, MO. More information available from US FCC via Universal Licensing System and Coast Guard Vessel Documentation Center.

Last reported at 2016-Dec-04 17:34 UTC. Time now 2016-Dec-04 18:25 UTC.
Position N 32°02' W 091°04'.

Length 55 m.

Type: Towing. MMSI: 366984920.

Date/timePositionNaut miles runAvg speedWind from/ knotsBaromVisibWave heightAir tempDewpointWater temp
2016-Dec-04 17:34N 32°02' W 091°04'  
2016-Dec-02 08:05N 29°58' W 090°17'0 0.0
2016-Dec-02 06:03N 29°58' W 090°17'136 3.8
2016-Nov-30 18:34N 32°08' W 091°06'6 6.2
2016-Nov-30 17:33N 32°11' W 090°60'9 8.8
2016-Nov-30 16:33N 32°18' W 090°55'4 4.2
2016-Nov-30 15:34N 32°21' W 090°59'6 6.0
2016-Nov-30 14:33N 32°26' W 091°02'8 5.8
2016-Nov-30 13:13N 32°33' W 091°06'5 7.4
2016-Nov-30 12:33N 32°37' W 091°09'8 6.4
2016-Nov-30 11:17N 32°43' W 091°03'4 5.9
2016-Nov-30 10:33N 32°44' W 091°08'  
Track history (hours):
 
Tides and Currents Weather Stations Pressure Air Temp Water Temp Dewpoint Dewpoint Depression Visibility Wind Speed Wind Dir Waves Ship Positions

John H Macmillan Jr

Owner: American River Transportation Company, St Louis, MO. More information available from US FCC via Universal Licensing System and Coast Guard Vessel Documentation Center.

Last reported at 2016-Dec-04 17:34 UTC. Time now 2016-Dec-04 18:25 UTC.
Position N 32°02' W 091°04'.

Length 55 m.

Type: Towing. MMSI: 366984920.

Date/timePositionNaut miles runAvg speedWind from/ knotsBaromVisibWave heightAir tempDewpointWater temp
2016-Dec-04 17:34N 32°02' W 091°04'  
2016-Dec-02 08:05N 29°58' W 090°17'0 0.0
2016-Dec-02 06:03N 29°58' W 090°17'136 3.8
2016-Nov-30 18:34N 32°08' W 091°06'6 6.2
2016-Nov-30 17:33N 32°11' W 090°60'9 8.8
2016-Nov-30 16:33N 32°18' W 090°55'4 4.2
2016-Nov-30 15:34N 32°21' W 090°59'6 6.0
2016-Nov-30 14:33N 32°26' W 091°02'8 5.8
2016-Nov-30 13:13N 32°33' W 091°06'5 7.4
2016-Nov-30 12:33N 32°37' W 091°09'8 6.4
2016-Nov-30 11:17N 32°43' W 091°03'4 5.9
2016-Nov-30 10:33N 32°44' W 091°08'  

Dump ship's entire track history